SBOSBO IST / LTFM
Speedbird OnlineSpeedbird Online IST / LTFM

Istanbul Airport
01:13 16.4°C

Location Istanbul, Turkey
Latitude: 41.275278
Longitude: 28.751944
Local Time 01:13 on 30 May 2024
UTC +3 hours (Europe/Istanbul)
Currency £1 equals TRY 41.13
METAR LTFM 292120Z 21007KT 180V250 CAVOK 19/12 Q1011 NOSIG RMK RWY17L 24007KT RWY34L 23007KT RWY16R 26005KT RWY36 19006KT RWY18 20006KT 160V220
TAF TAF LTFM 291640Z 2918/3024 17009KT 9999 SCT030 BECMG 2918/2920 CAVOK BECMG 3004/3007 23015KT
Weather As Of 30 May 2024 01:05
Description Few clouds
Wind 8 km/h from West (253°)
Cloud Cover 11%
Precipitation Rain: none, Snow: none
Sunrise 05:35
Sunset 20:30
NOTAM 26 active NOTAM
Rotations During the last 90 days there were
229 flights from LHR
233 flights to LHR
Lounges IGA Lounge , International
Web Airport Website | Wikipedia
Codes IATA: IST
ICAO: LTFM
Altitude 99 Meter / 325 Feet
Distance 2,451 KM / 1,523 Miles
from London.
Runways
RunwayLength (m)Surface
16L3750Asphalt
16R3750Asphalt
17L4100Asphalt
17R4100Asphalt
183060Concrete
34L3750Asphalt
34R3750Asphalt
35L4100Asphalt
35R4100Asphalt
363060Concrete
Radio
TypeDescriptionFrequency
ClearanceIstanbul Clearance Delivery121.7
GROUNDIstanbul Ground121.75
TOWERIstanbul Tower131.1
Live ATC



Support Speedbird Online

© 2017-2024 Speedbird Online